sensor_id;sensor_type;location;lat;lon;timestamp;temperature;humidity
15152;DHT22;7676;50.900;6.234;2023-05-10T00:04:27;16.20;99.90
15152;DHT22;7676;50.900;6.234;2023-05-10T00:19:30;16.20;99.90
15152;DHT22;7676;50.900;6.234;2023-05-10T00:34:32;15.90;99.90
15152;DHT22;7676;50.900;6.234;2023-05-10T00:49:36;15.80;99.90
15152;DHT22;7676;50.900;6.234;2023-05-10T01:04:39;16.00;99.90
15152;DHT22;7676;50.900;6.234;2023-05-10T01:19:42;16.20;99.90
15152;DHT22;7676;50.900;6.234;2023-05-10T01:35:06;15.90;99.90
15152;DHT22;7676;50.900;6.234;2023-05-10T01:50:18;16.00;99.90
15152;DHT22;7676;50.900;6.234;2023-05-10T02:05:21;16.00;99.90
15152;DHT22;7676;50.900;6.234;2023-05-10T02:20:28;16.10;99.90
15152;DHT22;7676;50.900;6.234;2023-05-10T02:35:32;15.90;99.90
15152;DHT22;7676;50.900;6.234;2023-05-10T02:50:37;15.50;99.90
15152;DHT22;7676;50.900;6.234;2023-05-10T03:05:41;15.40;99.90
15152;DHT22;7676;50.900;6.234;2023-05-10T03:20:49;15.50;99.90
15152;DHT22;7676;50.900;6.234;2023-05-10T03:35:53;14.80;99.90
15152;DHT22;7676;50.900;6.234;2023-05-10T03:50:56;15.30;99.90
15152;DHT22;7676;50.900;6.234;2023-05-10T04:06:00;15.00;99.90
15152;DHT22;7676;50.900;6.234;2023-05-10T04:21:04;14.80;99.90
15152;DHT22;7676;50.900;6.234;2023-05-10T04:36:07;14.90;99.90
15152;DHT22;7676;50.900;6.234;2023-05-10T04:51:10;14.70;99.90
15152;DHT22;7676;50.900;6.234;2023-05-10T05:06:16;14.60;99.90
15152;DHT22;7676;50.900;6.234;2023-05-10T05:21:19;14.70;99.90
15152;DHT22;7676;50.900;6.234;2023-05-10T05:36:22;14.80;99.90
15152;DHT22;7676;50.900;6.234;2023-05-10T05:51:25;14.60;99.90
15152;DHT22;7676;50.900;6.234;2023-05-10T06:06:27;14.80;99.90
15152;DHT22;7676;50.900;6.234;2023-05-10T06:21:30;15.00;99.90
15152;DHT22;7676;50.900;6.234;2023-05-10T06:36:32;15.00;99.90
15152;DHT22;7676;50.900;6.234;2023-05-10T06:51:49;15.20;99.90
15152;DHT22;7676;50.900;6.234;2023-05-10T07:06:51;15.20;99.90
15152;DHT22;7676;50.900;6.234;2023-05-10T07:21:54;15.20;99.90
15152;DHT22;7676;50.900;6.234;2023-05-10T07:36:58;15.60;99.90
15152;DHT22;7676;50.900;6.234;2023-05-10T07:52:05;15.50;99.90
15152;DHT22;7676;50.900;6.234;2023-05-10T08:07:08;15.00;99.90
15152;DHT22;7676;50.900;6.234;2023-05-10T08:22:11;14.60;99.90
15152;DHT22;7676;50.900;6.234;2023-05-10T08:37:17;14.90;99.90
15152;DHT22;7676;50.900;6.234;2023-05-10T08:52:28;14.90;99.90
15152;DHT22;7676;50.900;6.234;2023-05-10T09:07:35;15.20;99.90
15152;DHT22;7676;50.900;6.234;2023-05-10T09:22:38;15.10;99.90
15152;DHT22;7676;50.900;6.234;2023-05-10T09:37:44;15.00;99.90
15152;DHT22;7676;50.900;6.234;2023-05-10T09:53:07;15.00;99.90
15152;DHT22;7676;50.900;6.234;2023-05-10T10:08:10;15.20;99.90
15152;DHT22;7676;50.900;6.234;2023-05-10T10:23:14;15.10;99.90
15152;DHT22;7676;50.900;6.234;2023-05-10T10:53:50;15.50;99.90
15152;DHT22;7676;50.900;6.234;2023-05-10T11:08:53;15.60;99.90
15152;DHT22;7676;50.900;6.234;2023-05-10T11:23:59;15.40;99.90
15152;DHT22;7676;50.900;6.234;2023-05-10T11:39:04;16.50;99.90
15152;DHT22;7676;50.900;6.234;2023-05-10T11:54:11;16.60;99.90
15152;DHT22;7676;50.900;6.234;2023-05-10T12:09:28;16.80;99.90
15152;DHT22;7676;50.900;6.234;2023-05-10T12:24:53;16.80;99.90
15152;DHT22;7676;50.900;6.234;2023-05-10T12:40:02;17.20;99.90
15152;DHT22;7676;50.900;6.234;2023-05-10T12:55:17;18.10;99.90
15152;DHT22;7676;50.900;6.234;2023-05-10T13:10:20;17.90;99.90
15152;DHT22;7676;50.900;6.234;2023-05-10T13:25:26;17.90;99.90
15152;DHT22;7676;50.900;6.234;2023-05-10T13:40:29;18.40;99.90
15152;DHT22;7676;50.900;6.234;2023-05-10T13:55:31;18.60;99.90
15152;DHT22;7676;50.900;6.234;2023-05-10T14:10:34;18.30;99.90
15152;DHT22;7676;50.900;6.234;2023-05-10T14:25:36;18.70;99.90
15152;DHT22;7676;50.900;6.234;2023-05-10T14:40:40;18.70;99.90
15152;DHT22;7676;50.900;6.234;2023-05-10T14:55:42;18.80;99.90
15152;DHT22;7676;50.900;6.234;2023-05-10T15:10:45;18.70;99.90
15152;DHT22;7676;50.900;6.234;2023-05-10T15:26:02;18.60;99.90
15152;DHT22;7676;50.900;6.234;2023-05-10T15:41:05;18.10;99.90
15152;DHT22;7676;50.900;6.234;2023-05-10T15:56:07;17.40;99.90
15152;DHT22;7676;50.900;6.234;2023-05-10T16:11:23;17.10;99.90
15152;DHT22;7676;50.900;6.234;2023-05-10T16:26:30;17.40;99.90
15152;DHT22;7676;50.900;6.234;2023-05-10T16:41:34;17.40;99.90
15152;DHT22;7676;50.900;6.234;2023-05-10T16:56:37;17.60;99.90
15152;DHT22;7676;50.900;6.234;2023-05-10T17:11:39;17.40;99.90
15152;DHT22;7676;50.900;6.234;2023-05-10T17:26:43;17.50;99.90
15152;DHT22;7676;50.900;6.234;2023-05-10T17:41:46;17.50;99.90
15152;DHT22;7676;50.900;6.234;2023-05-10T17:56:48;17.70;99.90
15152;DHT22;7676;50.900;6.234;2023-05-10T18:11:51;17.50;99.90
15152;DHT22;7676;50.900;6.234;2023-05-10T18:26:53;17.30;99.90
15152;DHT22;7676;50.900;6.234;2023-05-10T18:42:10;17.30;99.90
15152;DHT22;7676;50.900;6.234;2023-05-10T18:57:13;17.70;99.90
15152;DHT22;7676;50.900;6.234;2023-05-10T19:12:15;17.50;99.90
15152;DHT22;7676;50.900;6.234;2023-05-10T19:27:19;17.20;99.90
15152;DHT22;7676;50.900;6.234;2023-05-10T19:42:21;17.30;99.90
15152;DHT22;7676;50.900;6.234;2023-05-10T19:57:25;17.50;99.90
15152;DHT22;7676;50.900;6.234;2023-05-10T20:12:29;17.70;99.90
15152;DHT22;7676;50.900;6.234;2023-05-10T20:27:31;17.50;99.90
15152;DHT22;7676;50.900;6.234;2023-05-10T20:42:37;16.90;99.90
15152;DHT22;7676;50.900;6.234;2023-05-10T20:57:40;16.90;99.90
15152;DHT22;7676;50.900;6.234;2023-05-10T21:12:43;16.50;99.90
15152;DHT22;7676;50.900;6.234;2023-05-10T21:27:53;16.10;99.90
15152;DHT22;7676;50.900;6.234;2023-05-10T21:42:57;16.20;99.90
15152;DHT22;7676;50.900;6.234;2023-05-10T21:58:01;15.90;99.90
15152;DHT22;7676;50.900;6.234;2023-05-10T22:13:03;15.70;99.90
15152;DHT22;7676;50.900;6.234;2023-05-10T22:28:06;15.60;99.90
15152;DHT22;7676;50.900;6.234;2023-05-10T22:43:09;15.80;99.90
15152;DHT22;7676;50.900;6.234;2023-05-10T22:58:12;15.80;99.90
15152;DHT22;7676;50.900;6.234;2023-05-10T23:13:14;15.40;99.90
15152;DHT22;7676;50.900;6.234;2023-05-10T23:28:31;15.50;99.90
15152;DHT22;7676;50.900;6.234;2023-05-10T23:43:34;15.40;99.90
15152;DHT22;7676;50.900;6.234;2023-05-10T23:58:37;15.50;99.90
